Flight Number: EUR2042 Duration: 4:00
Departure: Madeira Funchal (LPMA) at 18:15 Distance: 1594 Nm
Arrival: Munich Int'l (EDDM) at 22:15 Equipment: B737

Weather Information
Aeroporto Da Madeira, Portugal (LPMA) 32-41-52N 016-46-28W May 23, 2018 - 08:00 PM EDT / 2018.05.24 0000 UTC
Wind: from the NNW (330 degrees) at 8 MPH (7 KT) (direction variable):0
Visibility: greater than 7 mile(s):0
Sky conditions: partly cloudy Temperature: 62 F (17 C) Dew Point: 51 F (11 C) Relative Humidity: 67% Pressure (altimeter): 30.00 in. Hg (1016 hPa)
ob: LPMA 240000Z 33007KT 260V010 9999 SCT015 17/11 Q1016 cycle: 0
Sunrise: 06:05 Sunset: 20:02 (UTC)

Munchen, Germany (EDDM) 48-21N 011-47E May 23, 2018 - 08:20 PM EDT / 2018.05.24 0020 UTC
Wind: from the WNW (300 degrees) at 2 MPH (2 KT):0
Visibility: greater than 7 mile(s):0
Sky conditions: mostly cloudy Weather: showers in the vicinity; Cumulonimbus clouds observed Temperature: 59 F (15 C) Dew Point: 55 F (13 C) Relative Humidity: 87% Pressure (altimeter): 30.03 in. Hg (1017 hPa)
ob: EDDM 240020Z 30002KT 9999 VCSH FEW016 SCT030CB BKN100 15/13 Q1017 NOSIG cycle: 0
Sunrise: 03:26 Sunset: 18:53 (UTC)

TAF:2018/05/23 18:27 TAF EDDM 231700Z 2318/2424 VRB03KT 9999 SCT035 PROB30 TEMPO 2318/2323 16012KT 3000 TSRA BKN030CB TEMPO 2323/2409 SHRA BKN010 BKN030CB PROB30 TEMPO 2405/2407 15012KT 3000 TSRA BKN006 BKN020CB PROB40 TEMPO 2409/2416 26015G25KT 3000 TSRAGR BKN012 BKN025CB BECMG 2420/2423 2000 BCFG

Previous Pireps for this route
Date Aircraft Flight time Fuel used Landing rate On time
2013-01-31B7373.54294480Yes
2013-07-23B73704.1835863-354No
2013-09-15B7374.04277000No
2014-10-20B7374.5125321-222No
2015-03-14B73704.2525118-384Yes
2016-01-18B73704.12-59-161Charter
2017-01-20B73704.0922227-285Charter
(pireps marked green are flown by you)

Route map